King of Scandinavia — OVOL2 — position and weather

sailwx.info

Track history (hours):
 
Tides and Currents Weather Stations Pressure Air Temp Water Temp Dewpoint Dewpoint Depression Visibility Wind Speed Wind Dir Waves Ship Positions

King of Scandinavia

Ship's website: http://www.dfds.co.uk/DSW/EN/OnBoard/na/KING.htm

Last reported at 2017-Feb-22 17:27 UTC. Time now 2017-Feb-23 02:35 UTC.
Position N 52°38' E 004°14'.

Length 166 m; beam 27.6 m; draft 6.2 m.

Type: Ship. MMSI: 220449000.

Date/timePositionNaut miles runAvg speedWind from/ knotsBaromVisibWave heightAir tempDewpointWater temp
2017-Feb-22 17:27N 52°38' E 004°14'1516.2
2017-Feb-22 16:33N 52°28' E 004°32'2 2.0
2017-Feb-22 15:31N 52°28' E 004°35'0 0.0
2017-Feb-22 14:31N 52°28' E 004°35'0 0.0
2017-Feb-22 13:31N 52°28' E 004°35'0 0.0
2017-Feb-22 12:31N 52°28' E 004°35'0 0.0
2017-Feb-22 11:31N 52°28' E 004°35'0 0.0
2017-Feb-22 10:25N 52°28' E 004°35'0 0.0
2017-Feb-22 09:28N 52°28' E 004°35'0 0.0
2017-Feb-22 08:33N 52°28' E 004°35'1211.7
2017-Feb-22 07:33N 52°34' E 004°19'17617.6
2017-Feb-21 21:34N 54°22' E 000°24'1817.8
2017-Feb-21 20:33N 54°31' W 000°02'1817.7
2017-Feb-21 19:34N 54°41' W 000°28'3717.6
2017-Feb-21 17:29N 55°00' W 001°21'3 3.6
2017-Feb-21 16:33N 54°59' W 001°27'0 0.0
2017-Feb-21 14:16N 54°59' W 001°27'0 0.0
2017-Feb-21 13:31N 54°59' W 001°27'0 0.0
2017-Feb-21 12:31N 54°59' W 001°27'0 0.0
2017-Feb-21 11:31N 54°59' W 001°27'0 0.0
2017-Feb-21 10:31N 54°59' W 001°27'0 0.0
2017-Feb-21 09:25N 54°59' W 001°27'5 5.3
2017-Feb-21 08:34N 54°60' W 001°19'4514.9
2017-Feb-21 05:33N 54°36' W 000°13'1717.4
2017-Feb-21 04:34N 54°27' E 000°12'15517.2
2017-Feb-20 19:33N 52°56' E 003°43'1616.3
2017-Feb-20 18:33N 52°44' E 004°01'1616.5
2017-Feb-20 17:34N 52°33' E 004°21'10 9.8
2017-Feb-20 16:33N 52°28' E 004°35'0 0.0
2017-Feb-20 15:32N 52°28' E 004°35'0 0.0
2017-Feb-20 14:32N 52°28' E 004°35'0 0.0
2017-Feb-20 13:32N 52°28' E 004°35'0 0.0
2017-Feb-20 12:32N 52°28' E 004°35'0 0.0
2017-Feb-20 11:32N 52°28' E 004°35'0 0.0
2017-Feb-20 10:29N 52°28' E 004°35'0 0.0
2017-Feb-20 09:32N 52°28' E 004°35'0 0.1
2017-Feb-20 08:34N 52°28' E 004°35'1212.4
2017-Feb-20 07:33N 52°35' E 004°18'16916.9
2017-Feb-19 21:32N 54°18' E 000°33'1818.6
2017-Feb-19 20:33N 54°28' E 000°07'1918.6
2017-Feb-19 19:34N 54°37' W 000°21'3918.3
2017-Feb-19 17:24N 54°59' W 001°18'5 6.0
2017-Feb-19 16:33N 54°59' W 001°27'0 0.0
2017-Feb-19 09:32N 54°59' W 001°27'8 8.5
2017-Feb-19 08:33N 54°58' W 001°13'3417.0
2017-Feb-19 06:33N 54°39' W 000°23'1717.2
2017-Feb-19 05:33N 54°30' E 000°02'1817.7
2017-Feb-19 04:33N 54°20' E 000°27'14916.4
2017-Feb-18 19:30N 52°51' E 003°48'1515.2
2017-Feb-18 18:29N 52°41' E 004°07'1415.2
2017-Feb-18 17:33N 52°32' E 004°25'8 7.5
2017-Feb-18 16:33N 52°28' E 004°35'0 0.0
2017-Feb-18 15:33N 52°28' E 004°35'0 0.0
2017-Feb-18 14:33N 52°28' E 004°35'0 0.0
2017-Feb-18 13:33N 52°28' E 004°35'0 0.0
2017-Feb-18 12:33N 52°28' E 004°35'0 0.0
2017-Feb-18 11:33N 52°28' E 004°35'0 0.0
2017-Feb-18 10:33N 52°28' E 004°35'0 0.0
2017-Feb-18 09:33N 52°28' E 004°35'0 0.2
2017-Feb-18 08:34N 52°28' E 004°35'1110.6
2017-Feb-18 07:34N 52°34' E 004°21'1716.8
2017-Feb-18 06:33N 52°45' E 003°60'14117.6
2017-Feb-17 22:31N 54°11' E 000°52'1718.2
2017-Feb-17 21:33N 54°20' E 000°26'1818.4
2017-Feb-17 20:34N 54°30' W 000°00'1918.6
2017-Feb-17 19:33N 54°40' W 000°27'3618.3
2017-Feb-17 17:33N 54°60' W 001°21'4 0.7
2017-Feb-17 12:23N 54°59' W 001°27'0 0.0
2017-Feb-17 10:32N 54°59' W 001°27'0 0.0
2017-Feb-17 09:32N 54°59' W 001°27'4 4.1
2017-Feb-17 08:34N 55°00' W 001°20'1716.8
2017-Feb-17 07:33N 54°52' W 000°55'2216.9
2017-Feb-17 06:15N 54°39' W 000°24'1217.0
2017-Feb-17 05:34N 54°33' W 000°07'1717.3
2017-Feb-17 04:33N 54°24' E 000°19'15416.7
2017-Feb-16 19:19N 52°51' E 003°47'1114.9
2017-Feb-16 18:33N 52°44' E 004°02'1514.9
2017-Feb-16 17:34N 52°35' E 004°21'1110.9
2017-Feb-16 16:33N 52°28' E 004°35'0 0.0
2017-Feb-16 15:31N 52°28' E 004°35'0 0.0
2017-Feb-16 14:31N 52°28' E 004°35'0 0.0
2017-Feb-16 13:31N 52°28' E 004°35'0 0.0
2017-Feb-16 12:31N 52°28' E 004°35'0 0.0
2017-Feb-16 11:31N 52°28' E 004°35'0 0.0
2017-Feb-16 10:31N 52°28' E 004°35'0 0.0
2017-Feb-16 09:28N 52°28' E 004°35'0 0.2
2017-Feb-16 08:33N 52°28' E 004°35'1313.1
2017-Feb-16 07:33N 52°36' E 004°18'17317.3
2017-Feb-15 21:34N 54°20' E 000°27'1818.3
2017-Feb-15 20:34N 54°30' E 000°00'1918.5
2017-Feb-15 19:34N 54°40' W 000°27'3718.4
2017-Feb-15 17:34N 54°60' W 001°21'4 3.5
2017-Feb-15 16:33N 54°59' W 001°27'0 0.0
2017-Feb-15 15:30N 54°59' W 001°27'0 0.0
2017-Feb-15 13:27N 54°59' W 001°27'0 0.0
2017-Feb-15 12:34N 54°59' W 001°27'0 0.0
2017-Feb-15 11:16N 54°59' W 001°27'0 0.0
2017-Feb-15 09:09N 54°59' W 001°27'4 5.9
2017-Feb-15 08:34N 55°01' W 001°21'3917.0
2017-Feb-15 06:15N 54°39' W 000°24'1014.5
2017-Feb-15 05:33N 54°34' W 000°09'1514.6
2017-Feb-15 04:33N 54°26' E 000°12'15416.3
2017-Feb-14 19:07N 52°55' E 003°41'915.9
2017-Feb-14 18:33N 52°49' E 003°52'1616.0
2017-Feb-14 17:33N 52°39' E 004°13'1615.9
2017-Feb-14 16:33N 52°28' E 004°32'2 1.8
2017-Feb-14 15:33N 52°28' E 004°35'0 0.0
2017-Feb-14 14:33N 52°28' E 004°35'0 0.0
2017-Feb-14 13:33N 52°28' E 004°35'0 0.0
2017-Feb-14 12:33N 52°28' E 004°35'0 0.0
2017-Feb-14 11:33N 52°28' E 004°35'0 0.0
2017-Feb-14 10:33N 52°28' E 004°35'0 0.0
2017-Feb-14 09:33N 52°28' E 004°35'4 4.4
2017-Feb-14 08:33N 52°29' E 004°28'1818.3
2017-Feb-14 07:33N 52°42' E 004°07'15816.9
2017-Feb-13 22:13N 54°17' E 000°36'1116.9
2017-Feb-13 21:33N 54°23' E 000°20'1717.3
2017-Feb-13 20:33N 54°33' W 000°05'5016.8
2017-Feb-13 17:33N 54°59' W 001°19'5 4.5
2017-Feb-13 16:33N 54°59' W 001°27'0 0.0
2017-Feb-13 15:28N 54°59' W 001°27'0 0.0
2017-Feb-13 14:28N 54°59' W 001°27'0 0.0
2017-Feb-13 12:28N 54°59' W 001°27'0 0.0
2017-Feb-13 10:28N 54°59' W 001°27'0 0.0
2017-Feb-13 09:16N 54°59' W 001°27'3 4.8
2017-Feb-13 08:33N 55°01' W 001°22'4515.1
2017-Feb-13 05:33N 54°36' W 000°15'1616.3
2017-Feb-13 04:33N 54°28' E 000°08'14217.6
2017-Feb-12 20:29N 53°04' E 003°23'3615.9
2017-Feb-12 18:14N 52°41' E 004°08'1115.7
2017-Feb-12 17:32N 52°34' E 004°22'  
Track history (hours):
 
Tides and Currents Weather Stations Pressure Air Temp Water Temp Dewpoint Dewpoint Depression Visibility Wind Speed Wind Dir Waves Ship Positions

King of Scandinavia

Ship's website: http://www.dfds.co.uk/DSW/EN/OnBoard/na/KING.htm

Last reported at 2017-Feb-22 17:27 UTC. Time now 2017-Feb-23 02:35 UTC.
Position N 52°38' E 004°14'.

Length 166 m; beam 27.6 m; draft 6.2 m.

Type: Ship. MMSI: 220449000.

Date/timePositionNaut miles runAvg speedWind from/ knotsBaromVisibWave heightAir tempDewpointWater temp
2017-Feb-22 17:27N 52°38' E 004°14'1516.2
2017-Feb-22 16:33N 52°28' E 004°32'2 2.0
2017-Feb-22 15:31N 52°28' E 004°35'0 0.0
2017-Feb-22 14:31N 52°28' E 004°35'0 0.0
2017-Feb-22 13:31N 52°28' E 004°35'0 0.0
2017-Feb-22 12:31N 52°28' E 004°35'0 0.0
2017-Feb-22 11:31N 52°28' E 004°35'0 0.0
2017-Feb-22 10:25N 52°28' E 004°35'0 0.0
2017-Feb-22 09:28N 52°28' E 004°35'0 0.0
2017-Feb-22 08:33N 52°28' E 004°35'1211.7
2017-Feb-22 07:33N 52°34' E 004°19'17617.6
2017-Feb-21 21:34N 54°22' E 000°24'1817.8
2017-Feb-21 20:33N 54°31' W 000°02'1817.7
2017-Feb-21 19:34N 54°41' W 000°28'3717.6
2017-Feb-21 17:29N 55°00' W 001°21'3 3.6
2017-Feb-21 16:33N 54°59' W 001°27'0 0.0
2017-Feb-21 14:16N 54°59' W 001°27'0 0.0
2017-Feb-21 13:31N 54°59' W 001°27'0 0.0
2017-Feb-21 12:31N 54°59' W 001°27'0 0.0
2017-Feb-21 11:31N 54°59' W 001°27'0 0.0
2017-Feb-21 10:31N 54°59' W 001°27'0 0.0
2017-Feb-21 09:25N 54°59' W 001°27'5 5.3
2017-Feb-21 08:34N 54°60' W 001°19'4514.9
2017-Feb-21 05:33N 54°36' W 000°13'1717.4
2017-Feb-21 04:34N 54°27' E 000°12'15517.2
2017-Feb-20 19:33N 52°56' E 003°43'1616.3
2017-Feb-20 18:33N 52°44' E 004°01'1616.5
2017-Feb-20 17:34N 52°33' E 004°21'10 9.8
2017-Feb-20 16:33N 52°28' E 004°35'0 0.0
2017-Feb-20 15:32N 52°28' E 004°35'0 0.0
2017-Feb-20 14:32N 52°28' E 004°35'0 0.0
2017-Feb-20 13:32N 52°28' E 004°35'0 0.0
2017-Feb-20 12:32N 52°28' E 004°35'0 0.0
2017-Feb-20 11:32N 52°28' E 004°35'0 0.0
2017-Feb-20 10:29N 52°28' E 004°35'0 0.0
2017-Feb-20 09:32N 52°28' E 004°35'0 0.1
2017-Feb-20 08:34N 52°28' E 004°35'1212.4
2017-Feb-20 07:33N 52°35' E 004°18'16916.9
2017-Feb-19 21:32N 54°18' E 000°33'1818.6
2017-Feb-19 20:33N 54°28' E 000°07'1918.6
2017-Feb-19 19:34N 54°37' W 000°21'3918.3
2017-Feb-19 17:24N 54°59' W 001°18'5 6.0
2017-Feb-19 16:33N 54°59' W 001°27'0 0.0
2017-Feb-19 09:32N 54°59' W 001°27'8 8.5
2017-Feb-19 08:33N 54°58' W 001°13'3417.0
2017-Feb-19 06:33N 54°39' W 000°23'1717.2
2017-Feb-19 05:33N 54°30' E 000°02'1817.7
2017-Feb-19 04:33N 54°20' E 000°27'14916.4
2017-Feb-18 19:30N 52°51' E 003°48'1515.2
2017-Feb-18 18:29N 52°41' E 004°07'1415.2
2017-Feb-18 17:33N 52°32' E 004°25'8 7.5
2017-Feb-18 16:33N 52°28' E 004°35'0 0.0
2017-Feb-18 15:33N 52°28' E 004°35'0 0.0
2017-Feb-18 14:33N 52°28' E 004°35'0 0.0
2017-Feb-18 13:33N 52°28' E 004°35'0 0.0
2017-Feb-18 12:33N 52°28' E 004°35'0 0.0
2017-Feb-18 11:33N 52°28' E 004°35'0 0.0
2017-Feb-18 10:33N 52°28' E 004°35'0 0.0
2017-Feb-18 09:33N 52°28' E 004°35'0 0.2
2017-Feb-18 08:34N 52°28' E 004°35'1110.6
2017-Feb-18 07:34N 52°34' E 004°21'1716.8
2017-Feb-18 06:33N 52°45' E 003°60'14117.6
2017-Feb-17 22:31N 54°11' E 000°52'1718.2
2017-Feb-17 21:33N 54°20' E 000°26'1818.4
2017-Feb-17 20:34N 54°30' W 000°00'1918.6
2017-Feb-17 19:33N 54°40' W 000°27'3618.3
2017-Feb-17 17:33N 54°60' W 001°21'4 0.7
2017-Feb-17 12:23N 54°59' W 001°27'0 0.0
2017-Feb-17 10:32N 54°59' W 001°27'0 0.0
2017-Feb-17 09:32N 54°59' W 001°27'4 4.1
2017-Feb-17 08:34N 55°00' W 001°20'1716.8
2017-Feb-17 07:33N 54°52' W 000°55'2216.9
2017-Feb-17 06:15N 54°39' W 000°24'1217.0
2017-Feb-17 05:34N 54°33' W 000°07'1717.3
2017-Feb-17 04:33N 54°24' E 000°19'15416.7
2017-Feb-16 19:19N 52°51' E 003°47'1114.9
2017-Feb-16 18:33N 52°44' E 004°02'1514.9
2017-Feb-16 17:34N 52°35' E 004°21'1110.9
2017-Feb-16 16:33N 52°28' E 004°35'0 0.0
2017-Feb-16 15:31N 52°28' E 004°35'0 0.0
2017-Feb-16 14:31N 52°28' E 004°35'0 0.0
2017-Feb-16 13:31N 52°28' E 004°35'0 0.0
2017-Feb-16 12:31N 52°28' E 004°35'0 0.0
2017-Feb-16 11:31N 52°28' E 004°35'0 0.0
2017-Feb-16 10:31N 52°28' E 004°35'0 0.0
2017-Feb-16 09:28N 52°28' E 004°35'0 0.2
2017-Feb-16 08:33N 52°28' E 004°35'1313.1
2017-Feb-16 07:33N 52°36' E 004°18'17317.3
2017-Feb-15 21:34N 54°20' E 000°27'1818.3
2017-Feb-15 20:34N 54°30' E 000°00'1918.5
2017-Feb-15 19:34N 54°40' W 000°27'3718.4
2017-Feb-15 17:34N 54°60' W 001°21'4 3.5
2017-Feb-15 16:33N 54°59' W 001°27'0 0.0
2017-Feb-15 15:30N 54°59' W 001°27'0 0.0
2017-Feb-15 13:27N 54°59' W 001°27'0 0.0
2017-Feb-15 12:34N 54°59' W 001°27'0 0.0
2017-Feb-15 11:16N 54°59' W 001°27'0 0.0
2017-Feb-15 09:09N 54°59' W 001°27'4 5.9
2017-Feb-15 08:34N 55°01' W 001°21'3917.0
2017-Feb-15 06:15N 54°39' W 000°24'1014.5
2017-Feb-15 05:33N 54°34' W 000°09'1514.6
2017-Feb-15 04:33N 54°26' E 000°12'15416.3
2017-Feb-14 19:07N 52°55' E 003°41'915.9
2017-Feb-14 18:33N 52°49' E 003°52'1616.0
2017-Feb-14 17:33N 52°39' E 004°13'1615.9
2017-Feb-14 16:33N 52°28' E 004°32'2 1.8
2017-Feb-14 15:33N 52°28' E 004°35'0 0.0
2017-Feb-14 14:33N 52°28' E 004°35'0 0.0
2017-Feb-14 13:33N 52°28' E 004°35'0 0.0
2017-Feb-14 12:33N 52°28' E 004°35'0 0.0
2017-Feb-14 11:33N 52°28' E 004°35'0 0.0
2017-Feb-14 10:33N 52°28' E 004°35'0 0.0
2017-Feb-14 09:33N 52°28' E 004°35'4 4.4
2017-Feb-14 08:33N 52°29' E 004°28'1818.3
2017-Feb-14 07:33N 52°42' E 004°07'15816.9
2017-Feb-13 22:13N 54°17' E 000°36'1116.9
2017-Feb-13 21:33N 54°23' E 000°20'1717.3
2017-Feb-13 20:33N 54°33' W 000°05'5016.8
2017-Feb-13 17:33N 54°59' W 001°19'5 4.5
2017-Feb-13 16:33N 54°59' W 001°27'0 0.0
2017-Feb-13 15:28N 54°59' W 001°27'0 0.0
2017-Feb-13 14:28N 54°59' W 001°27'0 0.0
2017-Feb-13 12:28N 54°59' W 001°27'0 0.0
2017-Feb-13 10:28N 54°59' W 001°27'0 0.0
2017-Feb-13 09:16N 54°59' W 001°27'3 4.8
2017-Feb-13 08:33N 55°01' W 001°22'4515.1
2017-Feb-13 05:33N 54°36' W 000°15'1616.3
2017-Feb-13 04:33N 54°28' E 000°08'14217.6
2017-Feb-12 20:29N 53°04' E 003°23'3615.9
2017-Feb-12 18:14N 52°41' E 004°08'1115.7
2017-Feb-12 17:32N 52°34' E 004°22'  

Dump ship's entire track history